sensor_id;sensor_type;location;lat;lon;timestamp;P1;durP1;ratioP1;P2;durP2;ratioP2
13335;SDS011;6737;51.480;11.962;2023-03-01T00:01:06;15.20;;;10.57;;
13335;SDS011;6737;51.480;11.962;2023-03-01T00:03:38;16.27;;;11.63;;
13335;SDS011;6737;51.480;11.962;2023-03-01T00:06:05;18.87;;;10.60;;
13335;SDS011;6737;51.480;11.962;2023-03-01T00:08:32;16.87;;;11.63;;
13335;SDS011;6737;51.480;11.962;2023-03-01T00:13:30;17.90;;;11.90;;
13335;SDS011;6737;51.480;11.962;2023-03-01T00:15:56;17.77;;;11.47;;
13335;SDS011;6737;51.480;11.962;2023-03-01T00:18:22;17.43;;;11.37;;
13335;SDS011;6737;51.480;11.962;2023-03-01T00:20:51;17.53;;;11.40;;
13335;SDS011;6737;51.480;11.962;2023-03-01T00:23:18;17.73;;;11.80;;
13335;SDS011;6737;51.480;11.962;2023-03-01T00:25:44;17.90;;;11.67;;
13335;SDS011;6737;51.480;11.962;2023-03-01T00:28:10;15.13;;;11.10;;
13335;SDS011;6737;51.480;11.962;2023-03-01T00:30:35;16.53;;;11.50;;
13335;SDS011;6737;51.480;11.962;2023-03-01T00:33:01;15.87;;;11.70;;
13335;SDS011;6737;51.480;11.962;2023-03-01T00:35:27;16.33;;;11.20;;
13335;SDS011;6737;51.480;11.962;2023-03-01T00:37:53;16.00;;;11.03;;
13335;SDS011;6737;51.480;11.962;2023-03-01T00:40:23;15.77;;;11.10;;
13335;SDS011;6737;51.480;11.962;2023-03-01T00:42:50;18.27;;;11.60;;
13335;SDS011;6737;51.480;11.962;2023-03-01T00:45:16;15.20;;;11.27;;
13335;SDS011;6737;51.480;11.962;2023-03-01T00:47:42;17.17;;;11.00;;
13335;SDS011;6737;51.480;11.962;2023-03-01T00:50:08;14.77;;;10.53;;
13335;SDS011;6737;51.480;11.962;2023-03-01T00:52:35;18.20;;;11.47;;
13335;SDS011;6737;51.480;11.962;2023-03-01T00:55:01;16.73;;;11.63;;
13335;SDS011;6737;51.480;11.962;2023-03-01T00:57:26;17.27;;;11.37;;
13335;SDS011;6737;51.480;11.962;2023-03-01T00:59:52;16.43;;;11.40;;
13335;SDS011;6737;51.480;11.962;2023-03-01T01:02:19;17.87;;;10.93;;
13335;SDS011;6737;51.480;11.962;2023-03-01T01:04:45;14.87;;;10.53;;
13335;SDS011;6737;51.480;11.962;2023-03-01T01:07:11;15.87;;;10.90;;
13335;SDS011;6737;51.480;11.962;2023-03-01T01:09:38;15.97;;;10.30;;
13335;SDS011;6737;51.480;11.962;2023-03-01T01:12:04;15.60;;;10.93;;
13335;SDS011;6737;51.480;11.962;2023-03-01T01:14:30;15.97;;;11.27;;
13335;SDS011;6737;51.480;11.962;2023-03-01T01:16:56;16.90;;;10.43;;
13335;SDS011;6737;51.480;11.962;2023-03-01T01:19:22;17.60;;;11.20;;
13335;SDS011;6737;51.480;11.962;2023-03-01T01:21:49;14.80;;;10.63;;
13335;SDS011;6737;51.480;11.962;2023-03-01T01:24:15;16.70;;;12.03;;
13335;SDS011;6737;51.480;11.962;2023-03-01T01:26:42;16.57;;;11.50;;
13335;SDS011;6737;51.480;11.962;2023-03-01T01:29:08;17.10;;;11.10;;
13335;SDS011;6737;51.480;11.962;2023-03-01T01:31:35;17.80;;;11.23;;
13335;SDS011;6737;51.480;11.962;2023-03-01T01:34:03;16.60;;;10.97;;
13335;SDS011;6737;51.480;11.962;2023-03-01T01:36:31;14.20;;;10.83;;
13335;SDS011;6737;51.480;11.962;2023-03-01T01:38:58;16.80;;;11.57;;
13335;SDS011;6737;51.480;11.962;2023-03-01T01:41:24;15.20;;;11.40;;
13335;SDS011;6737;51.480;11.962;2023-03-01T01:44:11;16.37;;;10.33;;
13335;SDS011;6737;51.480;11.962;2023-03-01T01:49:32;17.00;;;11.43;;
13335;SDS011;6737;51.480;11.962;2023-03-01T01:52:25;15.33;;;10.80;;
13335;SDS011;6737;51.480;11.962;2023-03-01T01:54:59;15.50;;;10.70;;
13335;SDS011;6737;51.480;11.962;2023-03-01T01:57:36;16.97;;;11.27;;
13335;SDS011;6737;51.480;11.962;2023-03-01T02:00:07;14.80;;;10.83;;
13335;SDS011;6737;51.480;11.962;2023-03-01T02:02:36;17.83;;;10.97;;
13335;SDS011;6737;51.480;11.962;2023-03-01T02:05:05;15.27;;;11.03;;
13335;SDS011;6737;51.480;11.962;2023-03-01T02:07:40;14.73;;;11.00;;
13335;SDS011;6737;51.480;11.962;2023-03-01T02:10:08;17.40;;;11.37;;
13335;SDS011;6737;51.480;11.962;2023-03-01T02:12:34;16.20;;;10.80;;
13335;SDS011;6737;51.480;11.962;2023-03-01T02:15:02;16.60;;;10.67;;
13335;SDS011;6737;51.480;11.962;2023-03-01T02:17:30;16.83;;;11.23;;
13335;SDS011;6737;51.480;11.962;2023-03-01T02:20:09;17.27;;;11.30;;
13335;SDS011;6737;51.480;11.962;2023-03-01T02:22:52;16.33;;;10.90;;
13335;SDS011;6737;51.480;11.962;2023-03-01T02:25:40;16.17;;;11.50;;
13335;SDS011;6737;51.480;11.962;2023-03-01T02:28:25;18.07;;;11.70;;
13335;SDS011;6737;51.480;11.962;2023-03-01T02:30:54;15.70;;;11.60;;
13335;SDS011;6737;51.480;11.962;2023-03-01T02:33:39;16.57;;;10.63;;
13335;SDS011;6737;51.480;11.962;2023-03-01T02:36:48;16.67;;;11.57;;
13335;SDS011;6737;51.480;11.962;2023-03-01T02:39:00;15.03;;;10.50;;
13335;SDS011;6737;51.480;11.962;2023-03-01T02:41:30;18.40;;;10.87;;
13335;SDS011;6737;51.480;11.962;2023-03-01T02:44:01;16.87;;;11.30;;
13335;SDS011;6737;51.480;11.962;2023-03-01T02:46:27;13.93;;;10.67;;
13335;SDS011;6737;51.480;11.962;2023-03-01T02:48:57;15.57;;;10.77;;
13335;SDS011;6737;51.480;11.962;2023-03-01T02:53:56;14.60;;;10.57;;
13335;SDS011;6737;51.480;11.962;2023-03-01T02:56:51;15.00;;;10.43;;
13335;SDS011;6737;51.480;11.962;2023-03-01T02:59:18;16.10;;;11.40;;
13335;SDS011;6737;51.480;11.962;2023-03-01T03:01:46;16.97;;;11.27;;
13335;SDS011;6737;51.480;11.962;2023-03-01T03:04:14;15.57;;;10.70;;
13335;SDS011;6737;51.480;11.962;2023-03-01T03:06:46;14.43;;;10.60;;
13335;SDS011;6737;51.480;11.962;2023-03-01T03:09:14;14.13;;;10.63;;
13335;SDS011;6737;51.480;11.962;2023-03-01T03:11:41;15.13;;;10.70;;
13335;SDS011;6737;51.480;11.962;2023-03-01T03:14:08;16.23;;;11.27;;
13335;SDS011;6737;51.480;11.962;2023-03-01T03:16:41;15.57;;;11.00;;
13335;SDS011;6737;51.480;11.962;2023-03-01T03:19:08;15.97;;;10.97;;
13335;SDS011;6737;51.480;11.962;2023-03-01T03:21:34;14.17;;;11.10;;
13335;SDS011;6737;51.480;11.962;2023-03-01T03:24:01;16.37;;;10.90;;
13335;SDS011;6737;51.480;11.962;2023-03-01T03:26:27;15.43;;;10.07;;
13335;SDS011;6737;51.480;11.962;2023-03-01T03:28:53;14.93;;;10.60;;
13335;SDS011;6737;51.480;11.962;2023-03-01T03:31:19;16.53;;;10.80;;
13335;SDS011;6737;51.480;11.962;2023-03-01T03:33:44;19.23;;;11.00;;
13335;SDS011;6737;51.480;11.962;2023-03-01T03:36:14;16.97;;;10.77;;
13335;SDS011;6737;51.480;11.962;2023-03-01T03:38:45;14.13;;;10.10;;
13335;SDS011;6737;51.480;11.962;2023-03-01T03:41:11;14.90;;;10.63;;
13335;SDS011;6737;51.480;11.962;2023-03-01T03:43:42;15.83;;;10.90;;
13335;SDS011;6737;51.480;11.962;2023-03-01T03:46:10;14.63;;;11.07;;
13335;SDS011;6737;51.480;11.962;2023-03-01T03:48:37;15.23;;;10.97;;
13335;SDS011;6737;51.480;11.962;2023-03-01T03:51:06;15.47;;;11.03;;
13335;SDS011;6737;51.480;11.962;2023-03-01T03:53:32;16.33;;;11.20;;
13335;SDS011;6737;51.480;11.962;2023-03-01T03:55:57;13.60;;;10.60;;
13335;SDS011;6737;51.480;11.962;2023-03-01T03:58:24;18.00;;;10.90;;
13335;SDS011;6737;51.480;11.962;2023-03-01T04:00:52;15.80;;;10.70;;
13335;SDS011;6737;51.480;11.962;2023-03-01T04:03:23;20.00;;;11.30;;
13335;SDS011;6737;51.480;11.962;2023-03-01T04:05:51;17.17;;;11.53;;
13335;SDS011;6737;51.480;11.962;2023-03-01T04:08:18;15.43;;;11.47;;
13335;SDS011;6737;51.480;11.962;2023-03-01T04:11:02;16.83;;;11.00;;
13335;SDS011;6737;51.480;11.962;2023-03-01T04:13:49;15.23;;;11.23;;
13335;SDS011;6737;51.480;11.962;2023-03-01T04:16:16;16.90;;;10.83;;
13335;SDS011;6737;51.480;11.962;2023-03-01T04:18:43;14.87;;;10.53;;
13335;SDS011;6737;51.480;11.962;2023-03-01T04:21:09;14.67;;;11.20;;
13335;SDS011;6737;51.480;11.962;2023-03-01T04:23:36;14.37;;;10.77;;
13335;SDS011;6737;51.480;11.962;2023-03-01T04:26:02;14.53;;;10.43;;
13335;SDS011;6737;51.480;11.962;2023-03-01T04:28:32;15.20;;;10.73;;
13335;SDS011;6737;51.480;11.962;2023-03-01T04:31:14;14.70;;;10.83;;
13335;SDS011;6737;51.480;11.962;2023-03-01T04:36:16;14.70;;;11.17;;
13335;SDS011;6737;51.480;11.962;2023-03-01T04:38:43;15.47;;;11.03;;
13335;SDS011;6737;51.480;11.962;2023-03-01T04:41:13;14.13;;;10.53;;
13335;SDS011;6737;51.480;11.962;2023-03-01T04:43:40;14.60;;;10.73;;
13335;SDS011;6737;51.480;11.962;2023-03-01T04:46:07;13.10;;;9.70;;
13335;SDS011;6737;51.480;11.962;2023-03-01T04:48:39;14.50;;;10.87;;
13335;SDS011;6737;51.480;11.962;2023-03-01T04:51:06;15.77;;;10.70;;
13335;SDS011;6737;51.480;11.962;2023-03-01T04:53:33;16.73;;;10.93;;
13335;SDS011;6737;51.480;11.962;2023-03-01T04:56:02;16.17;;;11.03;;
13335;SDS011;6737;51.480;11.962;2023-03-01T04:58:28;19.40;;;11.63;;
13335;SDS011;6737;51.480;11.962;2023-03-01T05:00:54;16.43;;;10.57;;
13335;SDS011;6737;51.480;11.962;2023-03-01T05:03:20;14.40;;;10.63;;
13335;SDS011;6737;51.480;11.962;2023-03-01T05:05:48;18.00;;;11.27;;
13335;SDS011;6737;51.480;11.962;2023-03-01T05:08:15;14.57;;;10.40;;
13335;SDS011;6737;51.480;11.962;2023-03-01T05:10:48;15.63;;;10.77;;
13335;SDS011;6737;51.480;11.962;2023-03-01T05:13:16;15.83;;;10.20;;
13335;SDS011;6737;51.480;11.962;2023-03-01T05:15:47;16.67;;;10.80;;
13335;SDS011;6737;51.480;11.962;2023-03-01T05:18:18;15.40;;;10.97;;
13335;SDS011;6737;51.480;11.962;2023-03-01T05:20:44;15.13;;;10.60;;
13335;SDS011;6737;51.480;11.962;2023-03-01T05:23:10;15.67;;;10.37;;
13335;SDS011;6737;51.480;11.962;2023-03-01T05:25:35;14.73;;;10.60;;
13335;SDS011;6737;51.480;11.962;2023-03-01T05:28:05;14.93;;;10.63;;
13335;SDS011;6737;51.480;11.962;2023-03-01T05:30:35;14.57;;;10.80;;
13335;SDS011;6737;51.480;11.962;2023-03-01T05:33:01;15.97;;;10.53;;
13335;SDS011;6737;51.480;11.962;2023-03-01T05:35:27;17.43;;;11.47;;
13335;SDS011;6737;51.480;11.962;2023-03-01T05:37:54;14.33;;;10.33;;
13335;SDS011;6737;51.480;11.962;2023-03-01T05:40:21;13.57;;;10.17;;
13335;SDS011;6737;51.480;11.962;2023-03-01T05:42:52;15.43;;;10.90;;
13335;SDS011;6737;51.480;11.962;2023-03-01T05:45:20;15.30;;;10.70;;
13335;SDS011;6737;51.480;11.962;2023-03-01T05:47:47;14.20;;;10.57;;
13335;SDS011;6737;51.480;11.962;2023-03-01T05:50:21;16.53;;;10.80;;
13335;SDS011;6737;51.480;11.962;2023-03-01T05:52:57;16.63;;;10.97;;
13335;SDS011;6737;51.480;11.962;2023-03-01T05:55:25;14.97;;;10.57;;
13335;SDS011;6737;51.480;11.962;2023-03-01T05:57:51;16.40;;;11.30;;
13335;SDS011;6737;51.480;11.962;2023-03-01T06:00:18;16.57;;;11.70;;
13335;SDS011;6737;51.480;11.962;2023-03-01T06:02:47;14.47;;;11.10;;
13335;SDS011;6737;51.480;11.962;2023-03-01T06:05:14;18.57;;;11.63;;
13335;SDS011;6737;51.480;11.962;2023-03-01T06:07:40;15.47;;;10.50;;
13335;SDS011;6737;51.480;11.962;2023-03-01T06:10:06;16.23;;;10.63;;
13335;SDS011;6737;51.480;11.962;2023-03-01T06:12:34;16.57;;;10.50;;
13335;SDS011;6737;51.480;11.962;2023-03-01T06:15:01;17.40;;;10.80;;
13335;SDS011;6737;51.480;11.962;2023-03-01T06:17:31;15.40;;;10.77;;
13335;SDS011;6737;51.480;11.962;2023-03-01T06:20:05;17.33;;;11.40;;
13335;SDS011;6737;51.480;11.962;2023-03-01T06:22:36;16.23;;;11.47;;
13335;SDS011;6737;51.480;11.962;2023-03-01T06:25:02;16.47;;;11.00;;
13335;SDS011;6737;51.480;11.962;2023-03-01T06:27:29;15.53;;;11.30;;
13335;SDS011;6737;51.480;11.962;2023-03-01T06:29:55;14.77;;;10.87;;
13335;SDS011;6737;51.480;11.962;2023-03-01T06:32:21;16.77;;;10.57;;
13335;SDS011;6737;51.480;11.962;2023-03-01T06:34:46;15.80;;;10.67;;
13335;SDS011;6737;51.480;11.962;2023-03-01T06:37:12;15.83;;;10.83;;
13335;SDS011;6737;51.480;11.962;2023-03-01T06:39:38;14.93;;;10.10;;
13335;SDS011;6737;51.480;11.962;2023-03-01T06:42:04;16.10;;;11.43;;
13335;SDS011;6737;51.480;11.962;2023-03-01T06:44:29;16.03;;;10.60;;
13335;SDS011;6737;51.480;11.962;2023-03-01T06:46:55;15.60;;;10.50;;
13335;SDS011;6737;51.480;11.962;2023-03-01T06:49:21;16.87;;;10.73;;
13335;SDS011;6737;51.480;11.962;2023-03-01T06:51:47;17.93;;;10.50;;
13335;SDS011;6737;51.480;11.962;2023-03-01T06:54:13;18.07;;;11.60;;
13335;SDS011;6737;51.480;11.962;2023-03-01T06:56:39;16.07;;;11.17;;
13335;SDS011;6737;51.480;11.962;2023-03-01T06:59:05;16.40;;;11.20;;
13335;SDS011;6737;51.480;11.962;2023-03-01T07:01:31;17.70;;;11.50;;
13335;SDS011;6737;51.480;11.962;2023-03-01T07:03:57;18.43;;;11.33;;
13335;SDS011;6737;51.480;11.962;2023-03-01T07:06:23;14.77;;;10.83;;
13335;SDS011;6737;51.480;11.962;2023-03-01T07:08:49;16.17;;;11.23;;
13335;SDS011;6737;51.480;11.962;2023-03-01T07:11:15;17.80;;;10.80;;
13335;SDS011;6737;51.480;11.962;2023-03-01T07:13:40;17.80;;;10.47;;
13335;SDS011;6737;51.480;11.962;2023-03-01T07:16:07;18.77;;;11.97;;
13335;SDS011;6737;51.480;11.962;2023-03-01T07:18:33;16.67;;;11.10;;
13335;SDS011;6737;51.480;11.962;2023-03-01T07:21:03;17.43;;;11.33;;
13335;SDS011;6737;51.480;11.962;2023-03-01T07:23:31;19.83;;;11.00;;
13335;SDS011;6737;51.480;11.962;2023-03-01T07:25:56;16.87;;;10.07;;
13335;SDS011;6737;51.480;11.962;2023-03-01T07:28:23;18.20;;;10.77;;
13335;SDS011;6737;51.480;11.962;2023-03-01T07:30:49;16.93;;;10.23;;
13335;SDS011;6737;51.480;11.962;2023-03-01T07:33:14;19.60;;;11.23;;
13335;SDS011;6737;51.480;11.962;2023-03-01T07:35:40;16.23;;;10.90;;
13335;SDS011;6737;51.480;11.962;2023-03-01T07:38:06;17.63;;;10.53;;
13335;SDS011;6737;51.480;11.962;2023-03-01T07:40:32;19.20;;;11.20;;
13335;SDS011;6737;51.480;11.962;2023-03-01T07:42:59;15.43;;;9.43;;
13335;SDS011;6737;51.480;11.962;2023-03-01T07:45:26;15.30;;;9.67;;
13335;SDS011;6737;51.480;11.962;2023-03-01T07:47:54;16.70;;;10.13;;
13335;SDS011;6737;51.480;11.962;2023-03-01T07:50:21;19.10;;;10.13;;
13335;SDS011;6737;51.480;11.962;2023-03-01T07:52:48;17.40;;;9.67;;
13335;SDS011;6737;51.480;11.962;2023-03-01T07:55:15;13.27;;;7.70;;
13335;SDS011;6737;51.480;11.962;2023-03-01T07:57:41;14.17;;;7.97;;
13335;SDS011;6737;51.480;11.962;2023-03-01T08:00:08;12.13;;;7.80;;
13335;SDS011;6737;51.480;11.962;2023-03-01T08:02:36;13.47;;;7.87;;
13335;SDS011;6737;51.480;11.962;2023-03-01T08:05:02;12.37;;;8.10;;
13335;SDS011;6737;51.480;11.962;2023-03-01T08:07:28;14.17;;;7.93;;
13335;SDS011;6737;51.480;11.962;2023-03-01T08:09:54;18.87;;;7.80;;
13335;SDS011;6737;51.480;11.962;2023-03-01T08:12:20;11.50;;;7.27;;
13335;SDS011;6737;51.480;11.962;2023-03-01T08:14:46;13.87;;;7.83;;
13335;SDS011;6737;51.480;11.962;2023-03-01T08:17:14;12.37;;;8.10;;
13335;SDS011;6737;51.480;11.962;2023-03-01T08:19:40;13.53;;;7.80;;
13335;SDS011;6737;51.480;11.962;2023-03-01T08:22:07;13.17;;;7.80;;
13335;SDS011;6737;51.480;11.962;2023-03-01T08:24:33;17.60;;;7.77;;
13335;SDS011;6737;51.480;11.962;2023-03-01T08:26:58;14.50;;;7.73;;
13335;SDS011;6737;51.480;11.962;2023-03-01T08:29:24;15.73;;;8.23;;
13335;SDS011;6737;51.480;11.962;2023-03-01T08:31:50;15.27;;;8.40;;
13335;SDS011;6737;51.480;11.962;2023-03-01T08:34:17;13.27;;;8.60;;
13335;SDS011;6737;51.480;11.962;2023-03-01T08:36:44;15.97;;;8.53;;
13335;SDS011;6737;51.480;11.962;2023-03-01T08:39:12;13.60;;;8.20;;
13335;SDS011;6737;51.480;11.962;2023-03-01T08:41:39;16.80;;;8.97;;
13335;SDS011;6737;51.480;11.962;2023-03-01T08:44:06;16.70;;;8.77;;
13335;SDS011;6737;51.480;11.962;2023-03-01T08:46:39;13.70;;;8.57;;
13335;SDS011;6737;51.480;11.962;2023-03-01T08:49:06;14.30;;;8.70;;
13335;SDS011;6737;51.480;11.962;2023-03-01T08:51:33;14.10;;;8.90;;
13335;SDS011;6737;51.480;11.962;2023-03-01T08:54:02;14.73;;;7.87;;
13335;SDS011;6737;51.480;11.962;2023-03-01T08:56:29;12.60;;;8.60;;
13335;SDS011;6737;51.480;11.962;2023-03-01T08:58:55;15.20;;;8.47;;
13335;SDS011;6737;51.480;11.962;2023-03-01T09:01:21;16.10;;;8.47;;
13335;SDS011;6737;51.480;11.962;2023-03-01T09:03:47;11.80;;;8.20;;
13335;SDS011;6737;51.480;11.962;2023-03-01T09:06:13;12.73;;;7.93;;
13335;SDS011;6737;51.480;11.962;2023-03-01T09:08:44;13.17;;;8.27;;
13335;SDS011;6737;51.480;11.962;2023-03-01T09:11:13;12.13;;;8.47;;
13335;SDS011;6737;51.480;11.962;2023-03-01T09:13:45;15.27;;;8.37;;
13335;SDS011;6737;51.480;11.962;2023-03-01T09:16:13;15.77;;;8.20;;
13335;SDS011;6737;51.480;11.962;2023-03-01T09:18:42;13.10;;;8.60;;
13335;SDS011;6737;51.480;11.962;2023-03-01T09:21:10;18.03;;;8.80;;
13335;SDS011;6737;51.480;11.962;2023-03-01T09:23:39;15.07;;;9.03;;
13335;SDS011;6737;51.480;11.962;2023-03-01T09:26:07;13.60;;;7.73;;
13335;SDS011;6737;51.480;11.962;2023-03-01T09:28:36;13.57;;;8.20;;
13335;SDS011;6737;51.480;11.962;2023-03-01T09:31:03;14.53;;;8.47;;
13335;SDS011;6737;51.480;11.962;2023-03-01T09:33:29;14.27;;;8.40;;
13335;SDS011;6737;51.480;11.962;2023-03-01T09:36:01;13.60;;;8.07;;
13335;SDS011;6737;51.480;11.962;2023-03-01T09:38:29;12.87;;;7.80;;
13335;SDS011;6737;51.480;11.962;2023-03-01T09:40:55;16.27;;;8.70;;
13335;SDS011;6737;51.480;11.962;2023-03-01T09:45:55;13.60;;;8.33;;
13335;SDS011;6737;51.480;11.962;2023-03-01T09:48:26;12.67;;;7.90;;
13335;SDS011;6737;51.480;11.962;2023-03-01T09:50:55;14.70;;;8.60;;
13335;SDS011;6737;51.480;11.962;2023-03-01T09:53:23;16.40;;;8.80;;
13335;SDS011;6737;51.480;11.962;2023-03-01T10:01:52;14.33;;;9.87;;
13335;SDS011;6737;51.480;11.962;2023-03-01T10:07:05;16.47;;;9.40;;
13335;SDS011;6737;51.480;11.962;2023-03-01T10:09:35;16.80;;;10.73;;
13335;SDS011;6737;51.480;11.962;2023-03-01T10:12:04;16.67;;;10.50;;
13335;SDS011;6737;51.480;11.962;2023-03-01T10:14:56;16.17;;;10.20;;
13335;SDS011;6737;51.480;11.962;2023-03-01T10:20:23;15.87;;;9.20;;
13335;SDS011;6737;51.480;11.962;2023-03-01T10:22:51;15.63;;;10.40;;
13335;SDS011;6737;51.480;11.962;2023-03-01T10:27:57;15.97;;;9.90;;
13335;SDS011;6737;51.480;11.962;2023-03-01T10:30:37;12.37;;;8.40;;
13335;SDS011;6737;51.480;11.962;2023-03-01T10:33:14;12.87;;;8.93;;
13335;SDS011;6737;51.480;11.962;2023-03-01T10:36:02;13.57;;;8.37;;
13335;SDS011;6737;51.480;11.962;2023-03-01T10:38:30;12.87;;;8.30;;
13335;SDS011;6737;51.480;11.962;2023-03-01T10:41:11;13.97;;;8.97;;
13335;SDS011;6737;51.480;11.962;2023-03-01T10:43:45;14.00;;;8.80;;
13335;SDS011;6737;51.480;11.962;2023-03-01T10:51:41;15.30;;;9.30;;
13335;SDS011;6737;51.480;11.962;2023-03-01T10:56:59;14.27;;;8.60;;
13335;SDS011;6737;51.480;11.962;2023-03-01T11:04:28;15.77;;;9.30;;
13335;SDS011;6737;51.480;11.962;2023-03-01T11:06:58;16.10;;;9.00;;
13335;SDS011;6737;51.480;11.962;2023-03-01T11:09:25;13.90;;;8.27;;
13335;SDS011;6737;51.480;11.962;2023-03-01T11:12:03;12.53;;;8.23;;
13335;SDS011;6737;51.480;11.962;2023-03-01T11:14:45;15.80;;;8.37;;
13335;SDS011;6737;51.480;11.962;2023-03-01T11:20:01;11.70;;;7.20;;
13335;SDS011;6737;51.480;11.962;2023-03-01T11:22:47;16.27;;;8.60;;
13335;SDS011;6737;51.480;11.962;2023-03-01T11:25:26;13.70;;;8.03;;
13335;SDS011;6737;51.480;11.962;2023-03-01T11:27:54;13.10;;;6.60;;
13335;SDS011;6737;51.480;11.962;2023-03-01T11:30:28;12.80;;;6.73;;
13335;SDS011;6737;51.480;11.962;2023-03-01T11:35:42;9.27;;;6.07;;
13335;SDS011;6737;51.480;11.962;2023-03-01T11:38:21;10.30;;;5.90;;
13335;SDS011;6737;51.480;11.962;2023-03-01T11:40:54;9.47;;;6.10;;
13335;SDS011;6737;51.480;11.962;2023-03-01T11:54:40;9.50;;;5.97;;
13335;SDS011;6737;51.480;11.962;2023-03-01T12:02:42;10.63;;;6.20;;
13335;SDS011;6737;51.480;11.962;2023-03-01T12:05:38;12.13;;;6.23;;
13335;SDS011;6737;51.480;11.962;2023-03-01T12:08:16;9.80;;;6.47;;
13335;SDS011;6737;51.480;11.962;2023-03-01T12:42:50;11.33;;;6.07;;
13335;SDS011;6737;51.480;11.962;2023-03-01T12:45:54;8.50;;;6.10;;
13335;SDS011;6737;51.480;11.962;2023-03-01T12:51:23;8.23;;;5.67;;
13335;SDS011;6737;51.480;11.962;2023-03-01T12:53:54;7.90;;;5.40;;
13335;SDS011;6737;51.480;11.962;2023-03-01T12:56:23;8.40;;;5.30;;
13335;SDS011;6737;51.480;11.962;2023-03-01T13:09:23;9.67;;;4.87;;
13335;SDS011;6737;51.480;11.962;2023-03-01T13:11:56;8.60;;;4.97;;
13335;SDS011;6737;51.480;11.962;2023-03-01T13:16:48;8.60;;;4.43;;
13335;SDS011;6737;51.480;11.962;2023-03-01T13:21:43;6.93;;;4.00;;
13335;SDS011;6737;51.480;11.962;2023-03-01T13:24:32;6.67;;;4.17;;
13335;SDS011;6737;51.480;11.962;2023-03-01T13:29:51;6.73;;;4.50;;
13335;SDS011;6737;51.480;11.962;2023-03-01T13:35:03;7.40;;;4.57;;
13335;SDS011;6737;51.480;11.962;2023-03-01T13:37:44;6.13;;;3.60;;
13335;SDS011;6737;51.480;11.962;2023-03-01T13:47:45;9.20;;;3.90;;
13335;SDS011;6737;51.480;11.962;2023-03-01T13:50:24;6.37;;;4.40;;
13335;SDS011;6737;51.480;11.962;2023-03-01T13:52:55;7.83;;;4.47;;
13335;SDS011;6737;51.480;11.962;2023-03-01T13:55:50;5.97;;;4.30;;
13335;SDS011;6737;51.480;11.962;2023-03-01T13:58:27;7.27;;;4.07;;
13335;SDS011;6737;51.480;11.962;2023-03-01T14:00:56;7.97;;;4.60;;
13335;SDS011;6737;51.480;11.962;2023-03-01T14:03:24;7.87;;;4.07;;
13335;SDS011;6737;51.480;11.962;2023-03-01T14:05:57;6.53;;;3.80;;
13335;SDS011;6737;51.480;11.962;2023-03-01T14:08:27;5.03;;;3.50;;
13335;SDS011;6737;51.480;11.962;2023-03-01T14:19:19;5.80;;;3.37;;
13335;SDS011;6737;51.480;11.962;2023-03-01T14:22:12;7.63;;;3.50;;
13335;SDS011;6737;51.480;11.962;2023-03-01T14:25:05;7.03;;;4.00;;
13335;SDS011;6737;51.480;11.962;2023-03-01T14:27:54;6.43;;;3.77;;
13335;SDS011;6737;51.480;11.962;2023-03-01T14:30:23;6.47;;;3.50;;
13335;SDS011;6737;51.480;11.962;2023-03-01T14:32:53;7.10;;;3.67;;
13335;SDS011;6737;51.480;11.962;2023-03-01T14:35:23;7.30;;;4.10;;
13335;SDS011;6737;51.480;11.962;2023-03-01T14:37:54;5.87;;;3.43;;
13335;SDS011;6737;51.480;11.962;2023-03-01T14:40:41;5.43;;;3.63;;
13335;SDS011;6737;51.480;11.962;2023-03-01T14:43:08;6.57;;;3.30;;
13335;SDS011;6737;51.480;11.962;2023-03-01T14:45:37;5.00;;;3.30;;
13335;SDS011;6737;51.480;11.962;2023-03-01T14:48:04;7.10;;;3.27;;
13335;SDS011;6737;51.480;11.962;2023-03-01T14:50:35;5.53;;;3.17;;
13335;SDS011;6737;51.480;11.962;2023-03-01T14:53:11;5.40;;;3.13;;
13335;SDS011;6737;51.480;11.962;2023-03-01T14:56:01;5.40;;;3.03;;
13335;SDS011;6737;51.480;11.962;2023-03-01T14:58:27;7.10;;;3.00;;
13335;SDS011;6737;51.480;11.962;2023-03-01T15:00:58;4.57;;;3.10;;
13335;SDS011;6737;51.480;11.962;2023-03-01T15:05:58;4.97;;;2.97;;
13335;SDS011;6737;51.480;11.962;2023-03-01T15:08:27;4.53;;;3.00;;
13335;SDS011;6737;51.480;11.962;2023-03-01T15:11:05;4.90;;;3.47;;
13335;SDS011;6737;51.480;11.962;2023-03-01T15:13:43;5.80;;;3.40;;
13335;SDS011;6737;51.480;11.962;2023-03-01T15:16:13;8.23;;;3.40;;
13335;SDS011;6737;51.480;11.962;2023-03-01T15:19:17;6.00;;;3.30;;
13335;SDS011;6737;51.480;11.962;2023-03-01T15:21:42;8.20;;;3.20;;
13335;SDS011;6737;51.480;11.962;2023-03-01T15:27:12;6.13;;;3.23;;
13335;SDS011;6737;51.480;11.962;2023-03-01T15:29:40;5.37;;;3.30;;
13335;SDS011;6737;51.480;11.962;2023-03-01T15:32:31;9.37;;;3.23;;
13335;SDS011;6737;51.480;11.962;2023-03-01T15:35:00;4.83;;;3.13;;
13335;SDS011;6737;51.480;11.962;2023-03-01T15:37:47;5.60;;;3.10;;
13335;SDS011;6737;51.480;11.962;2023-03-01T15:40:25;6.93;;;3.60;;
13335;SDS011;6737;51.480;11.962;2023-03-01T15:42:59;5.57;;;3.00;;
13335;SDS011;6737;51.480;11.962;2023-03-01T15:45:27;7.57;;;3.70;;
13335;SDS011;6737;51.480;11.962;2023-03-01T15:47:55;4.50;;;3.07;;
13335;SDS011;6737;51.480;11.962;2023-03-01T15:50:40;5.60;;;3.70;;
13335;SDS011;6737;51.480;11.962;2023-03-01T15:53:12;6.30;;;3.53;;
13335;SDS011;6737;51.480;11.962;2023-03-01T15:55:40;6.90;;;4.10;;
13335;SDS011;6737;51.480;11.962;2023-03-01T15:58:12;7.20;;;3.83;;
13335;SDS011;6737;51.480;11.962;2023-03-01T16:00:40;6.10;;;3.70;;
13335;SDS011;6737;51.480;11.962;2023-03-01T16:03:08;9.47;;;3.77;;
13335;SDS011;6737;51.480;11.962;2023-03-01T16:05:37;6.77;;;4.10;;
13335;SDS011;6737;51.480;11.962;2023-03-01T16:08:04;7.87;;;4.20;;
13335;SDS011;6737;51.480;11.962;2023-03-01T16:10:31;7.00;;;3.97;;
13335;SDS011;6737;51.480;11.962;2023-03-01T16:12:58;8.77;;;4.20;;
13335;SDS011;6737;51.480;11.962;2023-03-01T16:15:31;6.63;;;4.53;;
13335;SDS011;6737;51.480;11.962;2023-03-01T16:18:00;7.50;;;4.07;;
13335;SDS011;6737;51.480;11.962;2023-03-01T16:20:26;6.77;;;3.90;;
13335;SDS011;6737;51.480;11.962;2023-03-01T16:22:53;6.63;;;3.90;;
13335;SDS011;6737;51.480;11.962;2023-03-01T16:25:20;6.37;;;3.57;;
13335;SDS011;6737;51.480;11.962;2023-03-01T16:27:49;8.50;;;3.90;;
13335;SDS011;6737;51.480;11.962;2023-03-01T16:30:17;8.07;;;3.60;;
13335;SDS011;6737;51.480;11.962;2023-03-01T16:32:45;4.80;;;3.30;;
13335;SDS011;6737;51.480;11.962;2023-03-01T16:35:13;5.57;;;3.63;;
13335;SDS011;6737;51.480;11.962;2023-03-01T16:37:40;5.63;;;3.60;;
13335;SDS011;6737;51.480;11.962;2023-03-01T16:40:07;7.33;;;3.77;;
13335;SDS011;6737;51.480;11.962;2023-03-01T16:42:48;6.73;;;3.53;;
13335;SDS011;6737;51.480;11.962;2023-03-01T16:45:15;5.50;;;3.37;;
13335;SDS011;6737;51.480;11.962;2023-03-01T16:47:41;6.23;;;3.70;;
13335;SDS011;6737;51.480;11.962;2023-03-01T16:50:07;9.40;;;3.87;;
13335;SDS011;6737;51.480;11.962;2023-03-01T16:52:33;6.30;;;4.00;;
13335;SDS011;6737;51.480;11.962;2023-03-01T16:54:59;7.10;;;4.13;;
13335;SDS011;6737;51.480;11.962;2023-03-01T16:57:25;7.87;;;4.10;;
13335;SDS011;6737;51.480;11.962;2023-03-01T16:59:51;7.23;;;3.73;;
13335;SDS011;6737;51.480;11.962;2023-03-01T17:02:20;8.80;;;4.50;;
13335;SDS011;6737;51.480;11.962;2023-03-01T17:04:52;11.00;;;4.07;;
13335;SDS011;6737;51.480;11.962;2023-03-01T17:07:19;7.57;;;4.00;;